Bemidji, Minnesota
Current Conditions -  °F | °C
As of 2:13 AM on Saturday 25 Oct 2014 (Local Time) from KBJI Reporting Station
Clear Clear  
Wind Chill: 44°   Ceiling: Unl
Heat Index: 50°   Visibility: 10mi
Dew Point: 32°   Wind: 15mph
Humidity: 51%   Direction: 280°W
Pressure: 29.9"   Gusts: 22mph
Location:  47.47°N, 94.88°W
Report Text: KBJI 250713Z AUTO 28013G19KT 10SM CLR 10/00 A2990 RMK AO2 T00980001
Loading
Personal Weather Stations






























Interactive Weather Map New forecast layout! Learn more

10-Day Weather Forecast

Advertisements
Track Severe Weather on mobile